Date,TemperatureHighF,TemperatureAvgF,TemperatureLowF,DewpointHighF,DewpointAvgF,DewpointLowF,HumidityHigh,HumidityAvg,HumidityLow,PressureMaxIn,PressureMinIn,WindSpeedMaxMPH,WindSpeedAvgMPH,GustSpeedMaxMPH,PrecipitationSumIn
2013-8-1,87,76,68,63,56,50,80,51,33,29.99,29.84,8,2,13,0.04
2013-8-2,92,74,64,62,59,51,90,63,27,29.95,29.79,9,2,9,0.15
2013-8-3,93,76,62,60,56,48,92,54,24,29.98,29.83,6,1,6,0.00
2013-8-4,94,79,66,61,56,47,85,49,23,29.94,29.77,9,2,15,0.15
2013-8-5,90,75,62,62,58,53,92,60,31,29.96,29.80,5,1,10,0.03
2013-8-6,89,75,66,56,53,45,63,47,23,29.89,29.78,7,2,15,0.00
2013-8-7,82,72,60,57,54,51,78,56,35,29.92,29.82,8,2,13,0.00
2013-8-8,86,73,61,56,51,41,78,49,23,29.93,29.82,10,3,16,0.00
2013-8-9,89,74,58,51,47,38,71,41,18,30.01,29.89,6,2,8,0.00
2013-8-10,85,72,62,55,51,44,69,50,31,30.14,29.94,11,3,16,0.00
2013-8-11,85,72,61,57,53,47,84,56,28,30.16,29.95,6,2,10,0.01
2013-8-12,85,73,67,58,55,50,73,54,32,30.06,29.90,8,2,12,0.00
2013-8-13,89,75,62,56,50,42,73,45,22,30.04,29.89,6,1,9,0.00
2013-8-14,89,75,61,58,51,40,77,46,18,30.01,29.86,15,2,20,0.00
2013-8-15,92,77,61,55,49,38,75,42,16,30.02,29.86,5,2,8,0.00
2013-8-16,95,81,68,53,45,26,51,31,9,29.99,29.82,7,2,10,0.00
2013-8-17,95,82,72,50,45,38,42,29,14,29.94,29.74,11,2,13,0.00
2013-8-18,93,80,68,53,49,43,57,35,19,29.94,29.78,6,1,10,0.00
2013-8-19,95,79,67,56,50,43,59,38,18,29.93,29.75,10,2,10,0.01
2013-8-20,92,74,63,67,57,50,87,57,25,29.94,29.77,7,2,12,0.29
2013-8-21,89,76,62,60,54,47,83,50,28,29.96,29.83,8,1,9,0.00
2013-8-22,91,79,64,53,48,38,59,35,23,29.98,29.78,5,2,12,0.00
2013-8-23,87,75,59,50,46,35,62,36,22,29.94,29.78,10,2,17,0.00
2013-8-24,84,75,67,59,53,48,68,48,33,29.98,29.84,9,2,13,0.00
2013-8-25,82,72,67,63,59,55,85,64,40,30.05,29.96,7,1,12,0.13
2013-8-26,88,75,61,62,56,47,92,56,30,30.10,29.92,6,2,9,0.01
2013-8-27,89,77,61,56,51,43,78,43,26,29.99,29.81,5,2,13,0.00
2013-8-28,88,76,68,56,52,48,57,44,28,29.99,29.85,7,2,11,0.00
2013-8-29,86,77,70,59,55,52,60,47,31,30.03,29.91,7,3,13,0.00
2013-8-30,92,80,65,62,55,44,82,47,20,30.00,29.82,5,2,8,0.00
2013-8-31,95,81,65,58,53,45,72,42,19,29.89,29.69,4,1,10,0.00